Time;durP1;ratioP1;P1;durP2;ratioP2;P2;SDS_P1;SDS_P2;PMS_P1;PMS_P2;Temp;Humidity;BMP_temperature;BMP_pressure;BME280_temperature;BME280_humidity;BME280_pressure;Samples;Min_cycle;Max_cycle;Signal;HPM_P1;HPM_P2
2024/02/20 00:00:15;;;;;;;3.67;1.40;;;;;;;;;;4993845;28;20216;-81
2024/02/20 00:02:43;;;;;;;4.87;1.70;;;;;;;;;;5013210;28;20276;-83
2024/02/20 00:05:09;;;;;;;4.43;1.47;;;;;;;;;;5010767;28;20228;-81
2024/02/20 00:07:35;;;;;;;5.63;1.70;;;;;;;;;;5004383;28;20248;-86
2024/02/20 00:10:07;;;;;;;3.77;1.50;;;;;;;;;;4999786;28;20233;-84
2024/02/20 00:12:37;;;;;;;3.57;1.60;;;;;;;;;;4965638;28;20228;-83
2024/02/20 00:15:09;;;;;;;3.47;1.60;;;;;;;;;;4966998;28;20227;-85
2024/02/20 00:17:35;;;;;;;4.93;1.70;;;;;;;;;;4997713;28;20606;-82
2024/02/20 00:20:01;;;;;;;3.57;1.50;;;;;;;;;;4994780;28;20233;-84
2024/02/20 00:22:27;;;;;;;5.03;1.60;;;;;;;;;;4981573;28;20221;-85
2024/02/20 00:24:57;;;;;;;4.77;1.50;;;;;;;;;;4979593;28;20270;-84
2024/02/20 00:27:28;;;;;;;5.60;1.57;;;;;;;;;;4996678;28;25816;-83
2024/02/20 00:29:58;;;;;;;5.03;1.60;;;;;;;;;;4980899;28;20225;-83
2024/02/20 00:32:29;;;;;;;6.07;1.53;;;;;;;;;;4994606;28;20299;-85
2024/02/20 00:34:57;;;;;;;3.73;1.77;;;;;;;;;;4977587;28;20217;-83
2024/02/20 00:37:22;;;;;;;6.37;1.47;;;;;;;;;;4977776;28;20213;-82
2024/02/20 00:39:53;;;;;;;7.07;1.80;;;;;;;;;;5011642;28;21059;-84
2024/02/20 00:42:19;;;;;;;4.07;1.50;;;;;;;;;;4979987;28;20236;-85
2024/02/20 00:44:44;;;;;;;8.30;1.83;;;;;;;;;;4983619;28;20221;-85
2024/02/20 00:47:10;;;;;;;6.37;1.50;;;;;;;;;;5011203;28;20243;-84
2024/02/20 00:49:39;;;;;;;3.60;1.40;;;;;;;;;;4996110;28;20608;-83
2024/02/20 00:52:07;;;;;;;6.70;1.37;;;;;;;;;;5012438;28;20260;-84
2024/02/20 00:54:40;;;;;;;5.17;1.50;;;;;;;;;;4978561;28;20208;-83
2024/02/20 00:57:06;;;;;;;7.40;1.60;;;;;;;;;;4994768;28;20567;-83
2024/02/20 00:59:34;;;;;;;5.10;1.40;;;;;;;;;;4980567;28;20223;-84
2024/02/20 01:02:10;;;;;;;5.73;1.40;;;;;;;;;;4975384;28;20702;-85
2024/02/20 01:04:39;;;;;;;5.67;1.63;;;;;;;;;;4996639;28;20225;-85
2024/02/20 01:07:07;;;;;;;3.27;1.27;;;;;;;;;;4977319;28;20242;-82
2024/02/20 01:09:33;;;;;;;4.47;1.40;;;;;;;;;;4963255;28;20312;-85
2024/02/20 01:11:59;;;;;;;5.43;1.30;;;;;;;;;;4979677;28;20224;-82
2024/02/20 01:14:24;;;;;;;4.20;1.00;;;;;;;;;;4994356;28;20212;-85
2024/02/20 01:16:52;;;;;;;4.23;1.40;;;;;;;;;;4979917;28;20221;-86
2024/02/20 01:19:18;;;;;;;4.53;1.40;;;;;;;;;;4975332;28;20231;-84
2024/02/20 01:21:46;;;;;;;3.83;1.30;;;;;;;;;;4997304;28;20232;-84
2024/02/20 01:24:12;;;;;;;3.57;1.03;;;;;;;;;;4994569;28;20574;-84
2024/02/20 01:26:43;;;;;;;4.90;1.60;;;;;;;;;;4961078;28;20234;-82
2024/02/20 01:29:13;;;;;;;3.57;1.10;;;;;;;;;;5009452;28;20236;-84
2024/02/20 01:31:39;;;;;;;3.17;1.30;;;;;;;;;;4993576;28;20271;-82
2024/02/20 01:34:07;;;;;;;4.07;1.20;;;;;;;;;;4978615;28;20221;-85
2024/02/20 01:36:35;;;;;;;1.80;0.90;;;;;;;;;;4978443;28;20977;-85
2024/02/20 01:39:03;;;;;;;2.67;0.90;;;;;;;;;;4992814;28;20232;-83
2024/02/20 01:41:31;;;;;;;4.43;1.20;;;;;;;;;;4994571;28;20304;-82
2024/02/20 01:43:59;;;;;;;2.23;1.07;;;;;;;;;;4974696;28;20287;-83
2024/02/20 01:46:28;;;;;;;3.20;1.20;;;;;;;;;;5009117;28;20224;-81
2024/02/20 01:48:54;;;;;;;4.10;1.10;;;;;;;;;;5005206;28;20232;-82
2024/02/20 01:51:24;;;;;;;1.97;1.00;;;;;;;;;;4974302;28;20287;-82
2024/02/20 01:53:52;;;;;;;2.33;1.20;;;;;;;;;;5008931;28;20228;-82
2024/02/20 01:56:18;;;;;;;2.17;0.90;;;;;;;;;;4974415;28;20259;-83
2024/02/20 01:58:44;;;;;;;2.73;1.00;;;;;;;;;;4974895;28;20658;-87
2024/02/20 02:01:09;;;;;;;4.33;1.07;;;;;;;;;;4972673;28;20255;-82
2024/02/20 02:03:37;;;;;;;1.23;1.07;;;;;;;;;;4975768;28;20600;-85
2024/02/20 02:06:05;;;;;;;1.53;0.97;;;;;;;;;;4992796;28;20224;-85
2024/02/20 02:08:33;;;;;;;2.40;1.10;;;;;;;;;;4991444;28;20720;-84
2024/02/20 02:11:03;;;;;;;1.83;1.40;;;;;;;;;;4993668;28;20232;-83
2024/02/20 02:13:28;;;;;;;3.60;1.47;;;;;;;;;;4994982;28;20234;-87
2024/02/20 02:15:56;;;;;;;3.43;1.60;;;;;;;;;;4979097;28;20220;-85
2024/02/20 02:18:21;;;;;;;2.10;1.23;;;;;;;;;;4982144;28;20937;-83
2024/02/20 02:20:47;;;;;;;3.13;1.47;;;;;;;;;;4981576;28;20270;-85
2024/02/20 02:23:12;;;;;;;3.47;1.40;;;;;;;;;;4998285;28;20217;-82
2024/02/20 02:25:38;;;;;;;3.00;1.30;;;;;;;;;;5007343;28;20211;-81
2024/02/20 02:28:06;;;;;;;4.90;1.30;;;;;;;;;;5007018;28;20290;-83
2024/02/20 02:30:35;;;;;;;2.83;1.13;;;;;;;;;;4999171;28;20222;-85
2024/02/20 02:33:01;;;;;;;1.70;0.87;;;;;;;;;;4978035;28;20279;-85
2024/02/20 02:35:30;;;;;;;6.50;1.37;;;;;;;;;;4979096;28;20646;-83
2024/02/20 02:37:56;;;;;;;6.40;1.40;;;;;;;;;;4995863;28;20227;-85
2024/02/20 02:40:26;;;;;;;3.20;1.20;;;;;;;;;;4976746;28;20753;-86
2024/02/20 02:42:59;;;;;;;5.07;1.30;;;;;;;;;;4978177;28;20228;-85
2024/02/20 02:45:31;;;;;;;4.67;1.50;;;;;;;;;;4962301;28;20231;-85
2024/02/20 02:47:59;;;;;;;9.07;1.57;;;;;;;;;;4995333;28;20646;-86
2024/02/20 02:50:31;;;;;;;5.80;1.80;;;;;;;;;;4977004;28;20707;-83
2024/02/20 02:52:57;;;;;;;7.83;1.77;;;;;;;;;;4994840;28;20221;-83
2024/02/20 02:55:25;;;;;;;10.83;2.50;;;;;;;;;;4978951;28;20266;-83
2024/02/20 02:57:53;;;;;;;9.30;2.20;;;;;;;;;;4977653;28;20608;-85
2024/02/20 03:00:19;;;;;;;13.03;2.80;;;;;;;;;;4977456;28;20223;-84
2024/02/20 03:02:46;;;;;;;16.37;2.77;;;;;;;;;;4977807;28;20694;-83
2024/02/20 03:05:15;;;;;;;17.77;3.37;;;;;;;;;;4994911;28;20240;-83
2024/02/20 03:07:43;;;;;;;20.77;4.03;;;;;;;;;;4979465;28;20228;-84
2024/02/20 03:10:11;;;;;;;22.33;4.57;;;;;;;;;;4977760;28;20224;-83
2024/02/20 03:12:40;;;;;;;27.80;5.03;;;;;;;;;;5011617;28;20232;-86
2024/02/20 03:15:06;;;;;;;23.83;4.70;;;;;;;;;;4978860;28;20608;-82
2024/02/20 03:17:32;;;;;;;27.70;5.20;;;;;;;;;;4977934;28;20270;-83
2024/02/20 03:19:59;;;;;;;20.50;4.33;;;;;;;;;;4978947;28;20225;-87
2024/02/20 03:22:26;;;;;;;20.30;4.37;;;;;;;;;;5007493;28;20228;-86
2024/02/20 03:24:52;;;;;;;26.00;4.80;;;;;;;;;;4965049;28;20225;-85
2024/02/20 03:27:18;;;;;;;24.30;4.33;;;;;;;;;;4993348;28;20241;-85
2024/02/20 03:29:45;;;;;;;23.07;4.70;;;;;;;;;;4978432;28;20256;-86
2024/02/20 03:32:13;;;;;;;20.40;4.20;;;;;;;;;;4978724;28;20213;-86
2024/02/20 03:34:39;;;;;;;20.53;3.97;;;;;;;;;;4977744;28;20266;-84
2024/02/20 03:37:09;;;;;;;26.73;4.47;;;;;;;;;;4977905;28;20221;-85
2024/02/20 03:39:40;;;;;;;23.27;4.33;;;;;;;;;;4978491;28;20229;-85
2024/02/20 03:42:05;;;;;;;22.27;4.13;;;;;;;;;;4996809;28;20659;-85
2024/02/20 03:44:32;;;;;;;22.87;4.70;;;;;;;;;;4997825;28;20217;-86
2024/02/20 03:46:57;;;;;;;31.23;4.60;;;;;;;;;;4997441;28;20229;-84
2024/02/20 03:49:23;;;;;;;22.97;3.83;;;;;;;;;;4997180;28;20233;-86
2024/02/20 03:51:48;;;;;;;22.00;4.43;;;;;;;;;;4998538;28;20724;-85
2024/02/20 03:54:18;;;;;;;20.77;3.90;;;;;;;;;;4980524;28;20251;-84
2024/02/20 03:56:46;;;;;;;23.90;4.80;;;;;;;;;;4981288;28;20213;-84
2024/02/20 04:03:01;;;;;;;21.37;3.90;;;;;;;;;;5008554;28;20224;-83
2024/02/20 04:05:30;;;;;;;21.27;4.60;;;;;;;;;;4977021;28;20848;-84
2024/02/20 04:07:57;;;;;;;22.90;4.53;;;;;;;;;;4994419;28;20604;-83
2024/02/20 04:10:22;;;;;;;24.07;4.63;;;;;;;;;;5008660;28;21417;-83
2024/02/20 04:12:48;;;;;;;23.57;4.60;;;;;;;;;;4980933;28;20240;-84
2024/02/20 04:15:19;;;;;;;23.27;4.80;;;;;;;;;;5000257;28;20284;-79
2024/02/20 04:17:44;;;;;;;22.97;4.27;;;;;;;;;;5022906;28;20240;-83
2024/02/20 04:20:11;;;;;;;23.77;4.30;;;;;;;;;;4981212;28;20220;-86
2024/02/20 04:22:37;;;;;;;23.87;4.47;;;;;;;;;;4980319;28;20363;-83
2024/02/20 04:25:03;;;;;;;28.40;4.70;;;;;;;;;;4986306;28;20284;-84
2024/02/20 04:27:31;;;;;;;25.90;4.60;;;;;;;;;;4987482;28;20319;-85
2024/02/20 04:29:57;;;;;;;29.33;4.83;;;;;;;;;;5002611;28;20220;-85
2024/02/20 04:32:22;;;;;;;24.03;4.60;;;;;;;;;;4985398;28;20274;-85
2024/02/20 04:34:48;;;;;;;24.67;4.87;;;;;;;;;;4983849;28;20213;-84
2024/02/20 04:37:16;;;;;;;23.97;4.23;;;;;;;;;;4994087;28;20276;-85
2024/02/20 04:39:45;;;;;;;20.40;4.20;;;;;;;;;;4996408;28;20231;-84
2024/02/20 04:42:16;;;;;;;26.93;4.77;;;;;;;;;;4985088;28;20212;-87
2024/02/20 04:44:41;;;;;;;26.90;4.93;;;;;;;;;;4972415;28;20308;-80
2024/02/20 04:47:09;;;;;;;29.77;5.30;;;;;;;;;;5012108;28;20229;-79
2024/02/20 04:49:35;;;;;;;22.33;4.27;;;;;;;;;;4994530;28;20255;-79
2024/02/20 04:52:00;;;;;;;34.07;5.50;;;;;;;;;;4996766;28;20591;-78
2024/02/20 04:54:26;;;;;;;21.83;4.17;;;;;;;;;;4979830;28;20224;-78
2024/02/20 04:56:54;;;;;;;30.13;4.70;;;;;;;;;;5012256;28;20220;-79
2024/02/20 04:59:19;;;;;;;28.07;4.63;;;;;;;;;;4980882;28;20232;-79
2024/02/20 05:01:48;;;;;;;24.40;4.63;;;;;;;;;;4996762;28;20286;-79
2024/02/20 05:04:14;;;;;;;27.80;5.03;;;;;;;;;;4980016;28;20220;-78
2024/02/20 05:06:41;;;;;;;25.43;4.70;;;;;;;;;;5013618;28;20252;-79
2024/02/20 05:09:08;;;;;;;32.93;5.27;;;;;;;;;;4997346;28;20891;-78
2024/02/20 05:11:37;;;;;;;28.03;5.13;;;;;;;;;;5012309;28;20284;-79
2024/02/20 05:14:07;;;;;;;33.83;5.03;;;;;;;;;;4997624;28;20216;-79
2024/02/20 05:16:32;;;;;;;27.50;4.77;;;;;;;;;;5010542;28;20878;-79
2024/02/20 05:18:58;;;;;;;30.57;4.87;;;;;;;;;;4995173;28;20216;-77
2024/02/20 05:21:23;;;;;;;31.33;4.77;;;;;;;;;;5024912;28;20224;-78
2024/02/20 05:23:51;;;;;;;31.90;5.00;;;;;;;;;;4979223;28;20597;-78
2024/02/20 05:26:17;;;;;;;35.30;5.80;;;;;;;;;;5007228;28;20282;-79
2024/02/20 05:28:42;;;;;;;27.57;4.67;;;;;;;;;;4992567;28;20224;-78
2024/02/20 05:31:32;;;;;;;26.37;5.27;;;;;;;;;;4995973;28;20220;-76
2024/02/20 05:34:01;;;;;;;29.10;4.60;;;;;;;;;;4979705;28;20248;-79
2024/02/20 05:36:29;;;;;;;29.00;5.13;;;;;;;;;;4993216;28;20232;-78
2024/02/20 05:38:59;;;;;;;27.90;5.30;;;;;;;;;;4994185;28;20308;-79
2024/02/20 05:41:26;;;;;;;29.27;5.40;;;;;;;;;;4979104;28;20238;-78
2024/02/20 05:43:57;;;;;;;25.77;5.00;;;;;;;;;;4994347;28;20306;-79
2024/02/20 05:46:30;;;;;;;32.37;5.97;;;;;;;;;;4994650;28;20228;-78
2024/02/20 05:48:56;;;;;;;34.90;5.13;;;;;;;;;;5009541;28;20256;-78
2024/02/20 05:51:23;;;;;;;29.57;5.73;;;;;;;;;;4992795;28;20290;-79
2024/02/20 05:53:49;;;;;;;32.80;5.37;;;;;;;;;;4978143;28;20229;-79
2024/02/20 05:56:15;;;;;;;34.13;5.77;;;;;;;;;;4976696;28;20217;-77
2024/02/20 05:58:43;;;;;;;34.60;5.97;;;;;;;;;;5008407;28;20224;-77
2024/02/20 06:01:09;;;;;;;25.70;5.87;;;;;;;;;;4993088;28;20223;-78
2024/02/20 06:03:38;;;;;;;25.53;5.67;;;;;;;;;;4993163;28;20220;-79
2024/02/20 06:06:07;;;;;;;42.83;6.17;;;;;;;;;;4992812;28;20235;-78
2024/02/20 06:08:40;;;;;;;30.73;5.63;;;;;;;;;;5005139;28;20812;-79
2024/02/20 06:11:22;;;;;;;30.77;5.90;;;;;;;;;;4952232;28;20224;-78
2024/02/20 06:13:53;;;;;;;31.10;5.80;;;;;;;;;;4992887;28;20258;-78
2024/02/20 06:16:20;;;;;;;36.07;6.07;;;;;;;;;;4991784;28;20224;-79
2024/02/20 06:18:45;;;;;;;32.40;6.03;;;;;;;;;;5008122;28;20335;-79
2024/02/20 06:21:14;;;;;;;33.47;5.23;;;;;;;;;;4991041;28;20217;-79
2024/02/20 06:23:42;;;;;;;32.13;5.83;;;;;;;;;;5008122;28;20227;-79
2024/02/20 06:26:07;;;;;;;33.07;6.20;;;;;;;;;;4976281;28;20710;-79
2024/02/20 06:28:35;;;;;;;30.00;5.30;;;;;;;;;;5008572;28;20239;-79
2024/02/20 06:31:03;;;;;;;31.33;6.13;;;;;;;;;;4992151;28;20319;-79
2024/02/20 06:33:29;;;;;;;34.63;6.23;;;;;;;;;;4976704;28;20220;-78
2024/02/20 06:35:59;;;;;;;33.63;5.83;;;;;;;;;;5008880;28;20220;-79
2024/02/20 06:38:32;;;;;;;38.80;6.33;;;;;;;;;;4995331;28;20233;-79
2024/02/20 06:40:58;;;;;;;31.83;6.50;;;;;;;;;;4995164;28;20340;-79
2024/02/20 06:43:23;;;;;;;40.77;8.03;;;;;;;;;;4994744;28;20259;-79
2024/02/20 06:45:49;;;;;;;32.80;6.50;;;;;;;;;;4978353;28;20221;-79
2024/02/20 06:48:14;;;;;;;39.13;7.33;;;;;;;;;;5011176;28;20225;-79
2024/02/20 06:50:40;;;;;;;33.13;5.90;;;;;;;;;;4977697;28;20240;-79
2024/02/20 06:53:06;;;;;;;26.87;6.97;;;;;;;;;;4994405;28;20233;-77
2024/02/20 06:55:32;;;;;;;34.70;7.13;;;;;;;;;;4980299;28;20319;-80
2024/02/20 06:57:58;;;;;;;31.83;6.83;;;;;;;;;;5010381;28;20240;-79
2024/02/20 07:00:25;;;;;;;38.30;7.90;;;;;;;;;;4995346;28;20224;-80
2024/02/20 07:02:50;;;;;;;36.83;7.63;;;;;;;;;;4979109;28;20224;-78
2024/02/20 07:05:19;;;;;;;33.97;7.20;;;;;;;;;;4997686;28;20344;-76
2024/02/20 07:07:45;;;;;;;35.43;8.17;;;;;;;;;;4992002;28;20225;-76
2024/02/20 07:10:10;;;;;;;35.93;8.43;;;;;;;;;;5003900;28;20293;-77
2024/02/20 07:12:36;;;;;;;39.73;7.93;;;;;;;;;;4994695;28;20220;-78
2024/02/20 07:15:06;;;;;;;30.10;7.20;;;;;;;;;;4993811;28;20311;-77
2024/02/20 07:17:36;;;;;;;36.53;7.63;;;;;;;;;;4994464;28;20445;-79
2024/02/20 07:20:03;;;;;;;33.27;6.03;;;;;;;;;;4981360;28;20248;-77
2024/02/20 07:22:29;;;;;;;34.77;8.97;;;;;;;;;;5013861;28;20217;-78
2024/02/20 07:24:55;;;;;;;37.90;8.23;;;;;;;;;;4998504;28;20248;-78
2024/02/20 07:27:21;;;;;;;32.50;7.47;;;;;;;;;;4998292;28;20278;-78
2024/02/20 07:29:48;;;;;;;36.40;7.30;;;;;;;;;;4998148;28;20221;-79
2024/02/20 07:32:13;;;;;;;37.17;7.13;;;;;;;;;;5012141;28;20217;-78
2024/02/20 07:34:39;;;;;;;35.07;7.40;;;;;;;;;;4999400;28;20890;-78
2024/02/20 07:37:05;;;;;;;35.80;7.70;;;;;;;;;;4999637;28;20227;-78
2024/02/20 07:39:33;;;;;;;32.30;7.93;;;;;;;;;;4995296;28;20651;-79
2024/02/20 07:42:01;;;;;;;37.30;8.10;;;;;;;;;;4979668;28;20224;-78
2024/02/20 07:44:28;;;;;;;35.37;8.90;;;;;;;;;;4981945;28;20228;-78
2024/02/20 07:46:54;;;;;;;41.43;9.50;;;;;;;;;;4998070;28;21134;-79
2024/02/20 07:49:22;;;;;;;32.43;9.10;;;;;;;;;;4994909;28;20220;-77
2024/02/20 07:51:47;;;;;;;33.97;8.70;;;;;;;;;;4995944;28;20219;-76
2024/02/20 07:54:16;;;;;;;38.43;9.13;;;;;;;;;;4994149;28;20224;-76
2024/02/20 07:56:44;;;;;;;35.43;9.37;;;;;;;;;;4993110;28;21141;-77
2024/02/20 07:59:10;;;;;;;30.63;8.73;;;;;;;;;;4977590;28;20296;-77
2024/02/20 08:01:36;;;;;;;36.00;8.43;;;;;;;;;;4979719;28;20225;-77
2024/02/20 08:04:02;;;;;;;33.97;8.60;;;;;;;;;;4994418;28;20228;-76
2024/02/20 08:06:27;;;;;;;33.27;8.57;;;;;;;;;;4994161;28;20320;-78
2024/02/20 08:08:55;;;;;;;36.97;9.00;;;;;;;;;;4980008;28;20227;-78
2024/02/20 08:11:23;;;;;;;29.00;9.00;;;;;;;;;;5012002;28;20221;-78
2024/02/20 08:13:49;;;;;;;38.70;10.17;;;;;;;;;;5010348;28;20244;-77
2024/02/20 08:16:15;;;;;;;39.00;9.90;;;;;;;;;;4995959;28;20296;-77
2024/02/20 08:18:41;;;;;;;33.33;10.43;;;;;;;;;;4995010;28;20312;-77
2024/02/20 08:21:07;;;;;;;34.37;10.90;;;;;;;;;;4997303;28;20231;-77
2024/02/20 08:23:34;;;;;;;29.57;10.30;;;;;;;;;;4980379;28;20227;-78
2024/02/20 08:26:03;;;;;;;33.63;10.77;;;;;;;;;;5012609;28;20725;-78
2024/02/20 08:28:31;;;;;;;34.33;9.17;;;;;;;;;;4996503;28;20225;-77
2024/02/20 08:30:56;;;;;;;38.87;9.83;;;;;;;;;;4964772;28;20252;-78
2024/02/20 08:33:24;;;;;;;33.47;10.17;;;;;;;;;;5012488;28;20236;-80
2024/02/20 08:35:50;;;;;;;34.77;9.50;;;;;;;;;;4996332;28;20216;-77
2024/02/20 08:38:18;;;;;;;35.47;8.23;;;;;;;;;;4995462;28;20225;-76
2024/02/20 08:40:43;;;;;;;31.07;8.17;;;;;;;;;;4976070;28;20287;-76
2024/02/20 08:43:12;;;;;;;32.33;8.53;;;;;;;;;;4962037;28;20710;-78
2024/02/20 08:45:37;;;;;;;30.60;7.87;;;;;;;;;;4979052;28;20239;-77
2024/02/20 08:48:03;;;;;;;30.33;8.73;;;;;;;;;;4978879;28;20233;-78
2024/02/20 08:50:31;;;;;;;32.83;8.03;;;;;;;;;;4994328;28;20224;-79
2024/02/20 08:52:56;;;;;;;34.63;9.23;;;;;;;;;;4994973;28;20227;-77
2024/02/20 08:55:26;;;;;;;29.73;8.40;;;;;;;;;;4993554;28;20706;-76
2024/02/20 08:57:52;;;;;;;33.33;8.63;;;;;;;;;;4993973;28;20346;-78
2024/02/20 09:00:21;;;;;;;29.33;8.33;;;;;;;;;;4993754;28;20221;-79
2024/02/20 09:02:47;;;;;;;28.47;8.50;;;;;;;;;;4978036;28;20224;-77
2024/02/20 09:05:12;;;;;;;26.27;7.87;;;;;;;;;;4993794;28;20224;-77
2024/02/20 09:07:41;;;;;;;32.60;9.43;;;;;;;;;;4994786;28;20224;-78
2024/02/20 09:10:10;;;;;;;24.83;7.30;;;;;;;;;;4992050;28;20233;-77
2024/02/20 09:12:36;;;;;;;32.87;9.17;;;;;;;;;;4996231;28;20267;-79
2024/02/20 09:15:02;;;;;;;30.50;7.97;;;;;;;;;;4993358;28;20251;-79
2024/02/20 09:17:28;;;;;;;31.57;8.20;;;;;;;;;;4995085;28;20228;-78
2024/02/20 09:19:54;;;;;;;32.90;8.17;;;;;;;;;;4995006;28;20274;-78
2024/02/20 09:22:20;;;;;;;25.83;7.27;;;;;;;;;;4962351;28;20289;-78
2024/02/20 09:24:45;;;;;;;29.67;7.13;;;;;;;;;;4979105;28;20224;-78
2024/02/20 09:27:11;;;;;;;30.40;7.77;;;;;;;;;;5001144;28;20243;-78
2024/02/20 09:29:39;;;;;;;27.63;6.60;;;;;;;;;;5010747;28;20225;-79
2024/02/20 09:32:05;;;;;;;24.83;7.40;;;;;;;;;;4989743;28;20328;-79
2024/02/20 09:34:33;;;;;;;25.23;7.47;;;;;;;;;;4996232;28;20227;-78
2024/02/20 09:37:02;;;;;;;36.10;7.97;;;;;;;;;;5011037;28;20228;-77
2024/02/20 09:39:28;;;;;;;24.73;6.40;;;;;;;;;;5010075;28;20237;-77
2024/02/20 09:41:53;;;;;;;26.47;6.03;;;;;;;;;;4993365;28;20224;-77
2024/02/20 09:44:26;;;;;;;25.03;5.93;;;;;;;;;;4976111;28;20227;-78
2024/02/20 09:46:55;;;;;;;24.33;5.83;;;;;;;;;;4993524;28;20232;-78
2024/02/20 09:49:21;;;;;;;30.10;6.63;;;;;;;;;;4992317;28;20240;-77
2024/02/20 09:51:46;;;;;;;23.70;5.57;;;;;;;;;;5023995;28;20246;-77
2024/02/20 09:54:15;;;;;;;23.03;5.07;;;;;;;;;;5020424;28;20224;-77
2024/02/20 09:56:41;;;;;;;25.10;6.13;;;;;;;;;;4996580;28;20232;-78
2024/02/20 09:59:13;;;;;;;23.77;5.77;;;;;;;;;;4992992;28;20233;-78
2024/02/20 10:01:39;;;;;;;26.57;6.40;;;;;;;;;;4994620;28;20231;-78
2024/02/20 10:04:07;;;;;;;22.80;6.20;;;;;;;;;;4991675;28;20221;-78
2024/02/20 10:06:35;;;;;;;22.23;5.50;;;;;;;;;;4992332;28;20296;-77
2024/02/20 10:09:01;;;;;;;22.63;4.77;;;;;;;;;;5009531;28;20228;-79
2024/02/20 10:11:36;;;;;;;22.03;4.53;;;;;;;;;;4979566;28;20299;-78
2024/02/20 10:14:02;;;;;;;22.73;4.43;;;;;;;;;;4989760;28;20248;-79
2024/02/20 10:16:30;;;;;;;22.67;4.70;;;;;;;;;;4992323;28;20236;-78
2024/02/20 10:18:58;;;;;;;23.43;4.97;;;;;;;;;;4977244;28;20314;-77
2024/02/20 10:21:25;;;;;;;22.10;5.23;;;;;;;;;;4977049;28;20216;-77
2024/02/20 10:24:03;;;;;;;23.30;5.00;;;;;;;;;;5007816;28;20252;-78
2024/02/20 10:26:39;;;;;;;21.73;5.00;;;;;;;;;;5008461;28;20233;-79
2024/02/20 10:29:05;;;;;;;21.63;4.70;;;;;;;;;;4990632;28;20236;-78
2024/02/20 10:31:31;;;;;;;18.27;4.63;;;;;;;;;;4975435;28;20295;-79
2024/02/20 10:33:57;;;;;;;23.97;4.80;;;;;;;;;;4991679;28;20645;-76
2024/02/20 10:36:22;;;;;;;21.47;5.47;;;;;;;;;;4991547;28;20217;-77
2024/02/20 10:38:51;;;;;;;18.67;4.63;;;;;;;;;;5006861;28;20228;-79
2024/02/20 10:41:22;;;;;;;26.40;4.83;;;;;;;;;;5007925;28;20498;-78
2024/02/20 10:43:48;;;;;;;21.17;4.70;;;;;;;;;;4994805;28;20244;-77
2024/02/20 10:46:14;;;;;;;18.60;4.50;;;;;;;;;;4976654;28;21078;-78
2024/02/20 10:48:39;;;;;;;20.50;4.23;;;;;;;;;;4991274;28;20780;-77
2024/02/20 10:51:06;;;;;;;18.73;4.30;;;;;;;;;;5007972;28;20290;-77
2024/02/20 10:53:32;;;;;;;19.10;4.83;;;;;;;;;;4978013;28;20290;-77
2024/02/20 10:56:01;;;;;;;17.27;4.03;;;;;;;;;;5011139;28;20231;-76
2024/02/20 10:58:27;;;;;;;18.13;3.90;;;;;;;;;;4979424;28;20626;-77
2024/02/20 11:00:52;;;;;;;18.57;4.40;;;;;;;;;;4996980;28;20232;-78
2024/02/20 11:03:18;;;;;;;14.20;4.13;;;;;;;;;;4937764;28;1185105;-78
2024/02/20 11:05:44;;;;;;;16.40;4.53;;;;;;;;;;5013093;28;20217;-77
2024/02/20 11:08:11;;;;;;;13.57;4.30;;;;;;;;;;4978566;28;20258;-76
2024/02/20 11:10:42;;;;;;;16.07;4.03;;;;;;;;;;4997667;28;20220;-77
2024/02/20 11:13:14;;;;;;;18.47;4.37;;;;;;;;;;4979973;28;20997;-79
2024/02/20 11:15:40;;;;;;;17.63;4.50;;;;;;;;;;5013065;28;20228;-77
2024/02/20 11:18:15;;;;;;;16.67;4.70;;;;;;;;;;4994914;28;20224;-78
2024/02/20 11:20:40;;;;;;;15.37;4.07;;;;;;;;;;5012356;28;20216;-79
2024/02/20 11:23:08;;;;;;;17.07;4.30;;;;;;;;;;4994558;28;20243;-77
2024/02/20 11:25:34;;;;;;;15.33;4.17;;;;;;;;;;4966522;28;20236;-79
2024/02/20 11:28:13;;;;;;;13.33;4.20;;;;;;;;;;4983083;28;20243;-77
2024/02/20 11:30:42;;;;;;;19.70;4.83;;;;;;;;;;4997398;28;20220;-77
2024/02/20 11:33:19;;;;;;;19.73;4.30;;;;;;;;;;4999442;28;20233;-78
2024/02/20 11:35:47;;;;;;;17.27;4.20;;;;;;;;;;4998778;28;20259;-77
2024/02/20 11:38:19;;;;;;;17.27;4.87;;;;;;;;;;5001022;28;20313;-78
2024/02/20 11:40:45;;;;;;;16.97;4.10;;;;;;;;;;4994705;28;20217;-79
2024/02/20 11:43:11;;;;;;;14.00;4.00;;;;;;;;;;4994090;28;20233;-79
2024/02/20 11:45:36;;;;;;;15.20;3.80;;;;;;;;;;5011619;28;20228;-78
2024/02/20 11:48:06;;;;;;;20.77;4.37;;;;;;;;;;5010199;28;20383;-77
2024/02/20 11:50:34;;;;;;;17.77;5.77;;;;;;;;;;5012646;28;20224;-77
2024/02/20 11:53:04;;;;;;;15.60;4.63;;;;;;;;;;5012904;28;20324;-77
2024/02/20 11:55:32;;;;;;;19.23;5.20;;;;;;;;;;4981922;28;20217;-77
2024/02/20 11:58:04;;;;;;;21.13;4.50;;;;;;;;;;4981022;28;20232;-76
2024/02/20 12:00:37;;;;;;;14.47;4.17;;;;;;;;;;5013728;28;20217;-78
2024/02/20 12:03:04;;;;;;;15.70;4.13;;;;;;;;;;4996464;28;20224;-79
2024/02/20 12:05:40;;;;;;;21.70;4.80;;;;;;;;;;4996359;28;20299;-79
2024/02/20 12:08:17;;;;;;;14.90;5.07;;;;;;;;;;5012937;28;20225;-79
2024/02/20 12:10:46;;;;;;;15.17;5.07;;;;;;;;;;4996872;28;20216;-78
2024/02/20 12:13:15;;;;;;;17.80;5.77;;;;;;;;;;4995453;28;20213;-77
2024/02/20 12:15:42;;;;;;;20.63;5.60;;;;;;;;;;5001697;28;20260;-76
2024/02/20 12:18:09;;;;;;;20.43;5.87;;;;;;;;;;4991059;28;20227;-78
2024/02/20 12:20:35;;;;;;;22.70;5.97;;;;;;;;;;5021958;28;20212;-77
2024/02/20 12:23:00;;;;;;;25.57;6.43;;;;;;;;;;5021902;28;20569;-78
2024/02/20 12:25:28;;;;;;;20.20;5.90;;;;;;;;;;5012245;28;20216;-78
2024/02/20 12:27:57;;;;;;;18.43;5.90;;;;;;;;;;5011044;28;20308;-76
2024/02/20 12:30:25;;;;;;;18.97;6.33;;;;;;;;;;4995604;28;22351;-78
2024/02/20 12:32:53;;;;;;;22.33;9.27;;;;;;;;;;4997221;28;20278;-76
2024/02/20 12:35:19;;;;;;;21.43;6.73;;;;;;;;;;4995614;28;21000;-77
2024/02/20 12:37:45;;;;;;;20.97;6.03;;;;;;;;;;4994615;28;20229;-77
2024/02/20 12:40:16;;;;;;;18.40;7.10;;;;;;;;;;4994278;28;20393;-78
2024/02/20 12:42:42;;;;;;;24.33;6.50;;;;;;;;;;4979858;28;20231;-77
2024/02/20 12:45:09;;;;;;;22.53;7.03;;;;;;;;;;5012600;28;20233;-77
2024/02/20 12:47:37;;;;;;;21.97;6.63;;;;;;;;;;4991372;28;20233;-79
2024/02/20 12:50:03;;;;;;;20.87;6.20;;;;;;;;;;4994841;28;20283;-78
2024/02/20 12:52:31;;;;;;;24.30;6.13;;;;;;;;;;5008722;28;20224;-79
2024/02/20 12:54:57;;;;;;;26.90;8.87;;;;;;;;;;5009488;28;20279;-78
2024/02/20 12:57:22;;;;;;;22.67;9.37;;;;;;;;;;4993861;28;20227;-77
2024/02/20 12:59:48;;;;;;;18.40;6.00;;;;;;;;;;4995256;28;20216;-78
2024/02/20 13:02:15;;;;;;;18.00;5.80;;;;;;;;;;5010665;28;20982;-78
2024/02/20 13:04:43;;;;;;;21.73;7.00;;;;;;;;;;5010629;28;20225;-78
2024/02/20 13:07:08;;;;;;;24.87;7.87;;;;;;;;;;5009741;28;20243;-77
2024/02/20 13:09:34;;;;;;;25.07;7.47;;;;;;;;;;5009526;28;20695;-78
2024/02/20 13:12:04;;;;;;;20.00;5.57;;;;;;;;;;4994763;28;20221;-79
2024/02/20 13:14:32;;;;;;;18.97;8.27;;;;;;;;;;4994170;28;20220;-77
2024/02/20 13:17:00;;;;;;;20.10;5.83;;;;;;;;;;5011156;28;20248;-78
2024/02/20 13:19:26;;;;;;;22.57;5.40;;;;;;;;;;4992859;28;20231;-78
2024/02/20 13:21:51;;;;;;;19.30;5.23;;;;;;;;;;4995508;28;20236;-78
2024/02/20 13:24:17;;;;;;;20.70;4.93;;;;;;;;;;4977547;28;20228;-78
2024/02/20 13:26:42;;;;;;;17.43;4.87;;;;;;;;;;5018569;28;20263;-76
2024/02/20 13:29:11;;;;;;;17.90;5.70;;;;;;;;;;4988162;28;20229;-76
2024/02/20 13:31:41;;;;;;;20.73;5.27;;;;;;;;;;5000887;28;20316;-77
2024/02/20 13:34:09;;;;;;;19.87;5.53;;;;;;;;;;4995792;28;20290;-76
2024/02/20 13:36:38;;;;;;;17.40;5.10;;;;;;;;;;5007172;28;20212;-77
2024/02/20 13:39:03;;;;;;;20.87;4.93;;;;;;;;;;5008132;28;20224;-78
2024/02/20 13:41:29;;;;;;;15.67;4.70;;;;;;;;;;5006488;28;20224;-77
2024/02/20 13:43:57;;;;;;;21.50;6.07;;;;;;;;;;5025884;28;20213;-78
2024/02/20 13:46:23;;;;;;;21.93;8.00;;;;;;;;;;5022961;28;21409;-78
2024/02/20 13:48:49;;;;;;;31.40;14.53;;;;;;;;;;5004468;28;20655;-78
2024/02/20 13:51:18;;;;;;;18.73;6.87;;;;;;;;;;5007831;28;20228;-78
2024/02/20 13:53:47;;;;;;;20.77;6.73;;;;;;;;;;5023712;28;20229;-79
2024/02/20 13:56:18;;;;;;;17.10;5.57;;;;;;;;;;5017314;28;20259;-78
2024/02/20 13:58:43;;;;;;;18.77;5.10;;;;;;;;;;4994374;28;20244;-78
2024/02/20 14:01:09;;;;;;;19.50;4.80;;;;;;;;;;5010572;28;20243;-77
2024/02/20 14:03:37;;;;;;;21.47;4.73;;;;;;;;;;5008156;28;20221;-77
2024/02/20 14:06:03;;;;;;;18.80;4.90;;;;;;;;;;5010115;28;20227;-79
2024/02/20 14:08:28;;;;;;;19.93;5.67;;;;;;;;;;4976061;28;20299;-79
2024/02/20 14:10:54;;;;;;;17.27;4.87;;;;;;;;;;4978816;28;20224;-78
2024/02/20 14:13:20;;;;;;;17.83;4.33;;;;;;;;;;4992744;28;20220;-78
2024/02/20 14:15:48;;;;;;;13.70;5.00;;;;;;;;;;4994026;28;20327;-78
2024/02/20 14:18:17;;;;;;;12.50;4.13;;;;;;;;;;5007656;28;20249;-77
2024/02/20 14:20:42;;;;;;;16.77;4.60;;;;;;;;;;5010329;28;20288;-77
2024/02/20 14:23:08;;;;;;;18.00;5.07;;;;;;;;;;4977081;28;20227;-77
2024/02/20 14:25:34;;;;;;;19.23;5.77;;;;;;;;;;4979935;28;20231;-78
2024/02/20 14:28:02;;;;;;;17.90;5.13;;;;;;;;;;5010375;28;20244;-78
2024/02/20 14:30:28;;;;;;;20.57;5.27;;;;;;;;;;4992034;28;20367;-78
2024/02/20 14:33:01;;;;;;;19.43;5.23;;;;;;;;;;5009091;28;20244;-77
2024/02/20 14:35:28;;;;;;;17.03;4.57;;;;;;;;;;5010576;28;20233;-76
2024/02/20 14:37:56;;;;;;;15.93;4.50;;;;;;;;;;4988825;28;20243;-77